sensor_id;sensor_type;location;lat;lon;timestamp;pressure;altitude;pressure_sealevel;temperature;humidity
83762;BME280;73752;49.594;8.734;2024-02-14T00:08:31;99948.16;;;3.15;77.58
83762;BME280;73752;49.594;8.734;2024-02-14T00:11:32;99931.69;;;2.99;78.53
83762;BME280;73752;49.594;8.734;2024-02-14T00:14:33;99935.09;;;3.07;77.51
83762;BME280;73752;49.594;8.734;2024-02-14T00:17:34;99931.03;;;3.13;77.04
83762;BME280;73752;49.594;8.734;2024-02-14T00:20:35;99940.94;;;3.34;76.71
83762;BME280;73752;49.594;8.734;2024-02-14T00:23:36;99948.59;;;3.51;76.63
83762;BME280;73752;49.594;8.734;2024-02-14T00:26:37;99929.97;;;3.63;75.88
83762;BME280;73752;49.594;8.734;2024-02-14T00:29:40;99945.34;;;3.96;74.67
83762;BME280;73752;49.594;8.734;2024-02-14T00:32:40;99929.41;;;3.91;74.42
83762;BME280;73752;49.594;8.734;2024-02-14T00:35:41;99951.31;;;3.82;75.33
83762;BME280;73752;49.594;8.734;2024-02-14T00:38:42;99949.28;;;4.00;75.28
83762;BME280;73752;49.594;8.734;2024-02-14T00:41:48;99934.25;;;4.02;74.46
83762;BME280;73752;49.594;8.734;2024-02-14T00:44:53;99945.19;;;4.37;74.43
83762;BME280;73752;49.594;8.734;2024-02-14T00:47:54;99924.41;;;4.13;75.04
83762;BME280;73752;49.594;8.734;2024-02-14T00:50:55;99924.41;;;4.13;74.89
83762;BME280;73752;49.594;8.734;2024-02-14T00:54:03;99948.13;;;4.03;74.34
83762;BME280;73752;49.594;8.734;2024-02-14T00:57:05;99924.25;;;4.14;74.20
83762;BME280;73752;49.594;8.734;2024-02-14T01:00:08;99949.25;;;4.09;75.42
83762;BME280;73752;49.594;8.734;2024-02-14T01:03:12;99928.34;;;4.09;75.01
83762;BME280;73752;49.594;8.734;2024-02-14T01:06:19;99935.47;;;4.23;74.86
83762;BME280;73752;49.594;8.734;2024-02-14T01:09:26;99929.38;;;4.30;74.82
83762;BME280;73752;49.594;8.734;2024-02-14T01:12:29;99919.63;;;4.47;74.18
83762;BME280;73752;49.594;8.734;2024-02-14T01:15:32;99936.81;;;4.72;73.62
83762;BME280;73752;49.594;8.734;2024-02-14T01:18:37;99922.69;;;4.81;72.90
83762;BME280;73752;49.594;8.734;2024-02-14T01:21:46;99914.78;;;4.89;73.14
83762;BME280;73752;49.594;8.734;2024-02-14T01:24:52;99924.19;;;4.99;72.60
83762;BME280;73752;49.594;8.734;2024-02-14T01:27:56;99906.16;;;5.04;71.95
83762;BME280;73752;49.594;8.734;2024-02-14T01:31:00;99919.00;;;5.28;71.88
83762;BME280;73752;49.594;8.734;2024-02-14T01:34:04;99907.91;;;5.26;71.89
83762;BME280;73752;49.594;8.734;2024-02-14T01:37:33;99891.56;;;5.38;72.06
83762;BME280;73752;49.594;8.734;2024-02-14T01:40:38;99890.41;;;5.56;70.61
83762;BME280;73752;49.594;8.734;2024-02-14T01:43:40;99894.13;;;5.61;70.24
83762;BME280;73752;49.594;8.734;2024-02-14T01:46:54;99898.59;;;5.67;69.72
83762;BME280;73752;49.594;8.734;2024-02-14T01:50:13;99881.13;;;5.53;70.98
83762;BME280;73752;49.594;8.734;2024-02-14T01:53:20;99892.22;;;5.70;71.27
83762;BME280;73752;49.594;8.734;2024-02-14T01:56:24;99891.66;;;5.74;70.79
83762;BME280;73752;49.594;8.734;2024-02-14T01:59:27;99883.81;;;5.74;70.86
83762;BME280;73752;49.594;8.734;2024-02-14T02:02:32;99875.59;;;5.92;70.58
83762;BME280;73752;49.594;8.734;2024-02-14T02:05:42;99880.56;;;5.87;70.54
83762;BME280;73752;49.594;8.734;2024-02-14T02:08:48;99883.69;;;5.82;71.01
83762;BME280;73752;49.594;8.734;2024-02-14T02:12:11;99881.91;;;5.83;71.13
83762;BME280;73752;49.594;8.734;2024-02-14T02:15:13;99884.16;;;5.86;70.81
83762;BME280;73752;49.594;8.734;2024-02-14T02:18:17;99873.59;;;5.79;70.59
83762;BME280;73752;49.594;8.734;2024-02-14T02:21:19;99857.31;;;5.84;70.75
83762;BME280;73752;49.594;8.734;2024-02-14T02:24:23;99850.91;;;6.01;70.71
83762;BME280;73752;49.594;8.734;2024-02-14T02:27:57;99859.19;;;6.05;70.53
83762;BME280;73752;49.594;8.734;2024-02-14T02:31:14;99844.81;;;6.37;69.75
83762;BME280;73752;49.594;8.734;2024-02-14T02:34:19;99841.91;;;6.25;69.94
83762;BME280;73752;49.594;8.734;2024-02-14T02:37:22;99848.31;;;6.22;70.36
83762;BME280;73752;49.594;8.734;2024-02-14T02:40:49;99840.22;;;6.39;69.45
83762;BME280;73752;49.594;8.734;2024-02-14T02:44:15;99829.72;;;6.39;69.67
83762;BME280;73752;49.594;8.734;2024-02-14T02:47:36;99851.41;;;6.47;69.23
83762;BME280;73752;49.594;8.734;2024-02-14T02:51:03;99836.84;;;6.66;67.84
83762;BME280;73752;49.594;8.734;2024-02-14T02:54:25;99849.09;;;6.87;67.60
83762;BME280;73752;49.594;8.734;2024-02-14T02:58:05;99859.69;;;6.93;67.65
83762;BME280;73752;49.594;8.734;2024-02-14T03:01:24;99855.50;;;7.05;66.52
83762;BME280;73752;49.594;8.734;2024-02-14T03:05:41;99846.53;;;7.21;66.56
83762;BME280;73752;49.594;8.734;2024-02-14T03:09:40;99870.69;;;7.38;66.02
83762;BME280;73752;49.594;8.734;2024-02-14T03:13:21;99860.31;;;7.30;65.94
83762;BME280;73752;49.594;8.734;2024-02-14T03:16:56;99869.59;;;7.26;66.28
83762;BME280;73752;49.594;8.734;2024-02-14T03:20:51;99877.09;;;7.29;66.44
83762;BME280;73752;49.594;8.734;2024-02-14T03:24:18;99891.16;;;7.49;65.48
83762;BME280;73752;49.594;8.734;2024-02-14T03:31:37;99874.31;;;7.37;65.41
83762;BME280;73752;49.594;8.734;2024-02-14T03:34:45;99867.25;;;7.37;65.07
83762;BME280;73752;49.594;8.734;2024-02-14T03:37:55;99895.00;;;7.53;64.57
83762;BME280;73752;49.594;8.734;2024-02-14T03:41:24;99887.47;;;7.43;65.13
83762;BME280;73752;49.594;8.734;2024-02-14T03:44:47;99886.72;;;7.49;64.42
83762;BME280;73752;49.594;8.734;2024-02-14T03:48:39;99890.81;;;7.58;64.39
83762;BME280;73752;49.594;8.734;2024-02-14T03:55:39;99886.03;;;7.69;63.58
83762;BME280;73752;49.594;8.734;2024-02-14T03:58:49;99893.50;;;7.72;63.36
83762;BME280;73752;49.594;8.734;2024-02-14T04:02:47;99902.22;;;7.72;63.62
83762;BME280;73752;49.594;8.734;2024-02-14T04:06:12;99890.47;;;7.68;63.40
83762;BME280;73752;49.594;8.734;2024-02-14T04:18:45;99885.38;;;7.67;63.05
83762;BME280;73752;49.594;8.734;2024-02-14T04:21:46;99881.13;;;7.66;63.24
83762;BME280;73752;49.594;8.734;2024-02-14T04:24:46;99892.03;;;7.62;63.84
83762;BME280;73752;49.594;8.734;2024-02-14T04:27:49;99904.00;;;7.65;64.18
83762;BME280;73752;49.594;8.734;2024-02-14T04:30:55;99902.94;;;7.59;64.12
83762;BME280;73752;49.594;8.734;2024-02-14T04:34:29;99895.25;;;7.58;64.04
83762;BME280;73752;49.594;8.734;2024-02-14T04:41:39;99898.50;;;7.60;64.24
83762;BME280;73752;49.594;8.734;2024-02-14T04:45:38;99892.44;;;7.59;63.98
83762;BME280;73752;49.594;8.734;2024-02-14T04:48:58;99904.75;;;7.59;63.92
83762;BME280;73752;49.594;8.734;2024-02-14T04:52:06;99894.00;;;7.54;64.07
83762;BME280;73752;49.594;8.734;2024-02-14T04:55:48;99891.97;;;7.49;64.65
83762;BME280;73752;49.594;8.734;2024-02-14T05:03:16;99897.69;;;7.59;63.73
83762;BME280;73752;49.594;8.734;2024-02-14T06:04:18;99921.69;;;7.84;67.76
83762;BME280;73752;49.594;8.734;2024-02-14T06:07:19;99921.66;;;7.78;66.84
83762;BME280;73752;49.594;8.734;2024-02-14T06:10:19;99919.22;;;7.76;66.63
83762;BME280;73752;49.594;8.734;2024-02-14T06:13:20;99921.66;;;7.78;66.08
83762;BME280;73752;49.594;8.734;2024-02-14T06:16:20;99927.16;;;7.83;65.47
83762;BME280;73752;49.594;8.734;2024-02-14T06:19:20;99924.06;;;7.73;65.98
83762;BME280;73752;49.594;8.734;2024-02-14T06:22:20;99908.28;;;7.79;64.71
83762;BME280;73752;49.594;8.734;2024-02-14T06:25:21;99924.06;;;7.79;65.30
83762;BME280;73752;49.594;8.734;2024-02-14T06:28:21;99927.09;;;7.76;65.30
83762;BME280;73752;49.594;8.734;2024-02-14T06:31:22;99928.09;;;7.75;66.08
83762;BME280;73752;49.594;8.734;2024-02-14T06:34:23;99927.34;;;7.81;65.59
83762;BME280;73752;49.594;8.734;2024-02-14T06:37:23;99934.41;;;7.81;66.18
83762;BME280;73752;49.594;8.734;2024-02-14T06:40:23;99943.75;;;7.90;66.63
83762;BME280;73752;49.594;8.734;2024-02-14T06:43:24;99943.34;;;7.86;67.69
83762;BME280;73752;49.594;8.734;2024-02-14T06:46:24;99933.41;;;7.88;67.49
83762;BME280;73752;49.594;8.734;2024-02-14T06:49:25;99940.94;;;7.91;67.62
83762;BME280;73752;49.594;8.734;2024-02-14T06:52:26;99959.09;;;7.86;69.83
83762;BME280;73752;49.594;8.734;2024-02-14T06:55:27;99955.59;;;7.73;69.68
83762;BME280;73752;49.594;8.734;2024-02-14T06:58:27;99963.94;;;7.83;70.24
83762;BME280;73752;49.594;8.734;2024-02-14T07:01:28;99954.66;;;7.87;70.00
83762;BME280;73752;49.594;8.734;2024-02-14T07:04:28;99960.84;;;7.73;70.42
83762;BME280;73752;49.594;8.734;2024-02-14T07:07:28;99981.06;;;7.72;70.45
83762;BME280;73752;49.594;8.734;2024-02-14T07:10:29;99966.72;;;7.75;71.33
83762;BME280;73752;49.594;8.734;2024-02-14T07:13:29;99970.22;;;7.88;71.53
83762;BME280;73752;49.594;8.734;2024-02-14T07:16:29;99977.31;;;7.88;71.14
83762;BME280;73752;49.594;8.734;2024-02-14T07:19:30;99973.91;;;7.94;71.21
83762;BME280;73752;49.594;8.734;2024-02-14T07:22:30;99968.22;;;7.90;71.47
83762;BME280;73752;49.594;8.734;2024-02-14T07:25:30;99975.13;;;7.91;71.51
83762;BME280;73752;49.594;8.734;2024-02-14T07:28:31;99967.22;;;7.91;71.74
83762;BME280;73752;49.594;8.734;2024-02-14T07:31:32;99970.28;;;7.95;71.96
83762;BME280;73752;49.594;8.734;2024-02-14T07:34:34;99988.06;;;7.93;71.85
83762;BME280;73752;49.594;8.734;2024-02-14T07:37:34;99991.31;;;7.95;72.43
83762;BME280;73752;49.594;8.734;2024-02-14T07:40:34;99983.66;;;8.00;72.40
83762;BME280;73752;49.594;8.734;2024-02-14T07:43:35;99988.75;;;8.08;72.35
83762;BME280;73752;49.594;8.734;2024-02-14T07:46:35;99995.53;;;8.24;71.79
83762;BME280;73752;49.594;8.734;2024-02-14T07:49:35;99993.66;;;8.18;72.04
83762;BME280;73752;49.594;8.734;2024-02-14T07:52:36;99982.50;;;8.16;72.01
83762;BME280;73752;49.594;8.734;2024-02-14T07:55:36;99990.22;;;8.17;71.86
83762;BME280;73752;49.594;8.734;2024-02-14T07:58:36;99978.94;;;8.23;71.71
83762;BME280;73752;49.594;8.734;2024-02-14T08:01:37;99992.69;;;8.25;72.27
83762;BME280;73752;49.594;8.734;2024-02-14T08:04:37;99991.75;;;8.33;71.95
83762;BME280;73752;49.594;8.734;2024-02-14T08:07:37;99978.53;;;8.26;72.27
83762;BME280;73752;49.594;8.734;2024-02-14T08:10:37;99988.41;;;8.24;72.35
83762;BME280;73752;49.594;8.734;2024-02-14T08:13:38;99990.63;;;8.21;72.94
83762;BME280;73752;49.594;8.734;2024-02-14T08:16:39;99990.63;;;8.21;73.20
83762;BME280;73752;49.594;8.734;2024-02-14T08:19:39;99994.97;;;8.35;73.20
83762;BME280;73752;49.594;8.734;2024-02-14T08:22:40;99994.38;;;8.33;73.31
83762;BME280;73752;49.594;8.734;2024-02-14T08:25:40;99997.56;;;8.28;73.51
83762;BME280;73752;49.594;8.734;2024-02-14T08:28:43;100001.47;;;8.39;73.51
83762;BME280;73752;49.594;8.734;2024-02-14T08:31:43;100004.72;;;8.41;73.50
83762;BME280;73752;49.594;8.734;2024-02-14T08:34:44;100013.81;;;8.38;73.50
83762;BME280;73752;49.594;8.734;2024-02-14T08:37:44;100002.50;;;8.44;73.43
83762;BME280;73752;49.594;8.734;2024-02-14T08:40:44;100003.34;;;8.45;73.87
83762;BME280;73752;49.594;8.734;2024-02-14T08:43:44;100008.41;;;8.53;74.10
83762;BME280;73752;49.594;8.734;2024-02-14T08:46:45;100006.38;;;8.48;74.26
83762;BME280;73752;49.594;8.734;2024-02-14T08:49:48;100011.06;;;8.53;74.39
83762;BME280;73752;49.594;8.734;2024-02-14T08:52:48;99996.84;;;8.47;74.34
83762;BME280;73752;49.594;8.734;2024-02-14T08:55:49;99996.88;;;8.54;74.08
83762;BME280;73752;49.594;8.734;2024-02-14T08:58:49;99996.88;;;8.54;74.56
83762;BME280;73752;49.594;8.734;2024-02-14T09:01:49;100004.22;;;8.72;74.04
83762;BME280;73752;49.594;8.734;2024-02-14T09:04:50;99992.91;;;8.78;73.48
83762;BME280;73752;49.594;8.734;2024-02-14T09:07:51;99996.53;;;8.70;74.32
83762;BME280;73752;49.594;8.734;2024-02-14T09:10:51;99996.19;;;8.86;73.58
83762;BME280;73752;49.594;8.734;2024-02-14T09:13:52;99988.25;;;8.80;73.65
83762;BME280;73752;49.594;8.734;2024-02-14T09:16:56;99996.97;;;8.80;73.88
83762;BME280;73752;49.594;8.734;2024-02-14T09:19:58;99985.19;;;8.70;74.32
83762;BME280;73752;49.594;8.734;2024-02-14T09:22:58;100000.63;;;8.86;73.88
83762;BME280;73752;49.594;8.734;2024-02-14T09:25:59;99988.44;;;8.78;73.54
83762;BME280;73752;49.594;8.734;2024-02-14T09:28:59;99988.25;;;8.73;73.72
83762;BME280;73752;49.594;8.734;2024-02-14T09:31:59;99990.09;;;8.86;73.49
83762;BME280;73752;49.594;8.734;2024-02-14T09:35:00;99969.47;;;9.03;73.22
83762;BME280;73752;49.594;8.734;2024-02-14T09:38:01;99997.88;;;9.40;72.00
83762;BME280;73752;49.594;8.734;2024-02-14T09:41:27;99990.34;;;9.44;72.06
83762;BME280;73752;49.594;8.734;2024-02-14T09:44:31;99993.38;;;9.73;71.37
83762;BME280;73752;49.594;8.734;2024-02-14T09:47:32;99992.75;;;9.84;71.06
83762;BME280;73752;49.594;8.734;2024-02-14T09:50:33;100002.72;;;9.76;71.07
83762;BME280;73752;49.594;8.734;2024-02-14T09:53:34;100004.53;;;9.56;71.96
83762;BME280;73752;49.594;8.734;2024-02-14T09:56:34;100003.94;;;9.67;71.81
83762;BME280;73752;49.594;8.734;2024-02-14T09:59:35;100001.31;;;9.67;72.17
83762;BME280;73752;49.594;8.734;2024-02-14T10:02:36;100009.59;;;9.83;71.50
83762;BME280;73752;49.594;8.734;2024-02-14T10:05:36;100012.78;;;10.12;70.70
83762;BME280;73752;49.594;8.734;2024-02-14T10:08:37;100000.78;;;10.22;70.52
83762;BME280;73752;49.594;8.734;2024-02-14T10:11:39;100015.03;;;10.21;70.64
83762;BME280;73752;49.594;8.734;2024-02-14T10:14:40;100018.38;;;10.48;69.95
83762;BME280;73752;49.594;8.734;2024-02-14T10:17:43;100010.25;;;10.50;69.80
83762;BME280;73752;49.594;8.734;2024-02-14T10:21:03;100019.16;;;10.62;69.79
83762;BME280;73752;49.594;8.734;2024-02-14T10:24:42;100009.53;;;11.12;68.13
83762;BME280;73752;49.594;8.734;2024-02-14T10:27:42;100015.38;;;11.14;67.67
83762;BME280;73752;49.594;8.734;2024-02-14T10:30:46;100003.72;;;10.97;68.53
83762;BME280;73752;49.594;8.734;2024-02-14T10:33:47;100008.81;;;10.92;68.37
83762;BME280;73752;49.594;8.734;2024-02-14T10:36:48;100020.63;;;10.89;68.67
83762;BME280;73752;49.594;8.734;2024-02-14T10:43:40;100025.75;;;10.84;68.28
83762;BME280;73752;49.594;8.734;2024-02-14T10:50:36;100047.19;;;10.50;70.00
83762;BME280;73752;49.594;8.734;2024-02-14T10:53:44;100045.19;;;10.45;69.78
83762;BME280;73752;49.594;8.734;2024-02-14T10:56:48;100041.47;;;10.59;69.35
83762;BME280;73752;49.594;8.734;2024-02-14T10:59:49;100044.75;;;10.55;69.73
83762;BME280;73752;49.594;8.734;2024-02-14T11:02:51;100033.81;;;10.51;69.96
83762;BME280;73752;49.594;8.734;2024-02-14T11:05:53;100018.78;;;10.45;70.54
83762;BME280;73752;49.594;8.734;2024-02-14T11:09:04;100037.31;;;10.83;69.31
83762;BME280;73752;49.594;8.734;2024-02-14T11:12:40;100048.88;;;10.89;69.22
83762;BME280;73752;49.594;8.734;2024-02-14T11:16:02;100030.09;;;10.59;70.08
83762;BME280;73752;49.594;8.734;2024-02-14T11:22:17;100035.00;;;10.62;70.98
83762;BME280;73752;49.594;8.734;2024-02-14T11:25:17;100021.22;;;10.47;71.70
83762;BME280;73752;49.594;8.734;2024-02-14T11:28:19;100028.91;;;10.55;71.26
83762;BME280;73752;49.594;8.734;2024-02-14T11:31:32;100037.63;;;10.62;71.17
83762;BME280;73752;49.594;8.734;2024-02-14T11:34:33;100027.88;;;10.62;71.68
83762;BME280;73752;49.594;8.734;2024-02-14T11:37:33;100029.13;;;10.91;71.03
83762;BME280;73752;49.594;8.734;2024-02-14T11:40:38;100011.25;;;10.93;70.45
83762;BME280;73752;49.594;8.734;2024-02-14T11:43:51;100023.38;;;11.07;70.39
83762;BME280;73752;49.594;8.734;2024-02-14T11:46:51;100020.81;;;11.26;69.06
83762;BME280;73752;49.594;8.734;2024-02-14T11:49:52;100009.47;;;11.18;69.09
83762;BME280;73752;49.594;8.734;2024-02-14T11:52:52;100010.28;;;10.88;69.88
83762;BME280;73752;49.594;8.734;2024-02-14T11:55:55;100006.88;;;10.74;70.84
83762;BME280;73752;49.594;8.734;2024-02-14T11:58:56;100009.03;;;11.22;69.52
83762;BME280;73752;49.594;8.734;2024-02-14T12:01:56;100022.66;;;11.50;68.88
83762;BME280;73752;49.594;8.734;2024-02-14T12:04:58;100004.72;;;11.27;69.04
83762;BME280;73752;49.594;8.734;2024-02-14T12:07:59;99989.94;;;11.19;68.82
83762;BME280;73752;49.594;8.734;2024-02-14T12:11:00;99996.75;;;11.34;69.34
83762;BME280;73752;49.594;8.734;2024-02-14T12:14:02;99991.53;;;11.52;68.28
83762;BME280;73752;49.594;8.734;2024-02-14T12:17:05;99987.59;;;12.04;66.88
83762;BME280;73752;49.594;8.734;2024-02-14T12:20:10;99997.22;;;12.17;67.07
83762;BME280;73752;49.594;8.734;2024-02-14T12:23:17;100000.16;;;12.45;65.66
83762;BME280;73752;49.594;8.734;2024-02-14T12:26:18;99998.88;;;12.47;65.53
83762;BME280;73752;49.594;8.734;2024-02-14T12:29:20;99986.84;;;12.33;65.47
83762;BME280;73752;49.594;8.734;2024-02-14T12:32:20;99999.84;;;11.98;66.82
83762;BME280;73752;49.594;8.734;2024-02-14T12:35:22;100003.28;;;11.81;67.69
83762;BME280;73752;49.594;8.734;2024-02-14T12:38:23;99989.72;;;11.46;68.75
83762;BME280;73752;49.594;8.734;2024-02-14T12:41:23;99990.59;;;11.64;68.60
83762;BME280;73752;49.594;8.734;2024-02-14T12:44:25;99988.69;;;11.72;68.10
83762;BME280;73752;49.594;8.734;2024-02-14T12:47:26;99991.91;;;11.98;67.72
83762;BME280;73752;49.594;8.734;2024-02-14T12:50:31;99987.13;;;12.07;67.58
83762;BME280;73752;49.594;8.734;2024-02-14T12:53:32;99990.22;;;11.86;67.91
83762;BME280;73752;49.594;8.734;2024-02-14T12:56:32;99985.22;;;11.78;68.25
83762;BME280;73752;49.594;8.734;2024-02-14T12:59:33;99982.50;;;11.59;68.92
83762;BME280;73752;49.594;8.734;2024-02-14T13:02:34;99979.47;;;11.56;69.21
83762;BME280;73752;49.594;8.734;2024-02-14T13:05:34;99994.84;;;11.41;69.85
83762;BME280;73752;49.594;8.734;2024-02-14T13:08:35;99991.06;;;11.30;70.17
83762;BME280;73752;49.594;8.734;2024-02-14T13:11:38;99984.47;;;11.39;70.09
83762;BME280;73752;49.594;8.734;2024-02-14T13:14:39;99994.50;;;11.37;70.62
83762;BME280;73752;49.594;8.734;2024-02-14T13:17:40;99990.75;;;11.20;71.11
83762;BME280;73752;49.594;8.734;2024-02-14T13:20:40;99992.50;;;11.01;72.25
83762;BME280;73752;49.594;8.734;2024-02-14T13:23:42;99983.56;;;11.02;72.37
83762;BME280;73752;49.594;8.734;2024-02-14T13:26:43;99986.53;;;11.12;72.25
83762;BME280;73752;49.594;8.734;2024-02-14T13:29:44;99973.91;;;11.14;73.00
83762;BME280;73752;49.594;8.734;2024-02-14T13:32:44;99976.25;;;11.29;73.30
83762;BME280;73752;49.594;8.734;2024-02-14T13:35:44;99978.56;;;11.44;72.71
83762;BME280;73752;49.594;8.734;2024-02-14T13:38:45;99976.84;;;11.56;72.46
83762;BME280;73752;49.594;8.734;2024-02-14T13:41:46;99974.53;;;11.66;71.82
83762;BME280;73752;49.594;8.734;2024-02-14T13:44:47;99977.72;;;11.75;71.77
83762;BME280;73752;49.594;8.734;2024-02-14T13:47:48;99989.84;;;11.82;71.36
83762;BME280;73752;49.594;8.734;2024-02-14T13:50:48;99975.88;;;11.50;72.03
83762;BME280;73752;49.594;8.734;2024-02-14T13:53:49;99983.09;;;11.37;72.42
83762;BME280;73752;49.594;8.734;2024-02-14T13:56:50;99968.63;;;11.39;72.44
83762;BME280;73752;49.594;8.734;2024-02-14T13:59:50;99966.63;;;11.35;72.95
83762;BME280;73752;49.594;8.734;2024-02-14T14:02:51;99960.88;;;11.19;73.16
83762;BME280;73752;49.594;8.734;2024-02-14T14:05:51;99956.94;;;11.29;73.18
83762;BME280;73752;49.594;8.734;2024-02-14T14:08:51;99958.75;;;11.53;72.83
83762;BME280;73752;49.594;8.734;2024-02-14T14:11:52;99950.03;;;11.52;72.20
83762;BME280;73752;49.594;8.734;2024-02-14T14:14:52;99956.25;;;11.58;72.31
83762;BME280;73752;49.594;8.734;2024-02-14T14:17:53;99961.13;;;11.61;71.88
83762;BME280;73752;49.594;8.734;2024-02-14T14:20:53;99958.75;;;11.53;72.50
83762;BME280;73752;49.594;8.734;2024-02-14T14:23:53;99945.53;;;11.53;72.64
83762;BME280;73752;49.594;8.734;2024-02-14T14:26:53;99951.06;;;11.70;72.57
83762;BME280;73752;49.594;8.734;2024-02-14T14:29:54;99961.13;;;11.36;73.31
83762;BME280;73752;49.594;8.734;2024-02-14T14:32:54;99949.66;;;11.24;73.64
83762;BME280;73752;49.594;8.734;2024-02-14T14:35:54;99948.84;;;11.24;74.38
83762;BME280;73752;49.594;8.734;2024-02-14T14:38:55;99957.03;;;11.15;74.47
83762;BME280;73752;49.594;8.734;2024-02-14T14:41:55;99962.97;;;11.11;75.11
83762;BME280;73752;49.594;8.734;2024-02-14T14:44:58;99974.91;;;11.20;75.13
83762;BME280;73752;49.594;8.734;2024-02-14T14:47:58;99957.91;;;11.34;74.49
83762;BME280;73752;49.594;8.734;2024-02-14T14:50:59;99961.88;;;11.18;75.35
83762;BME280;73752;49.594;8.734;2024-02-14T14:53:59;99951.47;;;11.24;74.94
83762;BME280;73752;49.594;8.734;2024-02-14T14:56:59;99957.34;;;11.01;75.90
83762;BME280;73752;49.594;8.734;2024-02-14T15:00:04;99966.28;;;11.00;75.87
83762;BME280;73752;49.594;8.734;2024-02-14T15:03:04;99964.25;;;11.02;75.87
83762;BME280;73752;49.594;8.734;2024-02-14T15:06:05;99965.38;;;10.88;77.28
83762;BME280;73752;49.594;8.734;2024-02-14T15:09:05;99970.09;;;10.79;78.35
83762;BME280;73752;49.594;8.734;2024-02-14T15:12:06;99967.53;;;10.66;79.34
83762;BME280;73752;49.594;8.734;2024-02-14T15:15:06;99979.94;;;10.59;80.46
83762;BME280;73752;49.594;8.734;2024-02-14T15:18:07;99973.78;;;10.34;81.74
83762;BME280;73752;49.594;8.734;2024-02-14T15:21:07;99980.09;;;10.19;82.89
83762;BME280;73752;49.594;8.734;2024-02-14T15:24:07;99967.56;;;10.02;83.91
83762;BME280;73752;49.594;8.734;2024-02-14T15:27:08;99982.19;;;9.98;84.90
83762;BME280;73752;49.594;8.734;2024-02-14T15:30:11;99966.97;;;9.86;85.31
83762;BME280;73752;49.594;8.734;2024-02-14T15:33:30;99986.84;;;10.02;85.52
83762;BME280;73752;49.594;8.734;2024-02-14T15:36:31;99974.06;;;9.93;85.60
83762;BME280;73752;49.594;8.734;2024-02-14T15:39:31;99983.00;;;9.92;86.46
83762;BME280;73752;49.594;8.734;2024-02-14T15:42:31;99974.69;;;9.88;86.33
83762;BME280;73752;49.594;8.734;2024-02-14T15:45:32;99980.34;;;9.92;86.76
83762;BME280;73752;49.594;8.734;2024-02-14T15:48:33;99986.00;;;9.95;86.86
83762;BME280;73752;49.594;8.734;2024-02-14T15:51:33;99989.28;;;9.97;86.96
83762;BME280;73752;49.594;8.734;2024-02-14T15:54:34;99975.31;;;9.90;86.59
83762;BME280;73752;49.594;8.734;2024-02-14T15:57:35;99969.22;;;9.83;86.60
83762;BME280;73752;49.594;8.734;2024-02-14T16:00:35;99971.03;;;9.89;87.02
83762;BME280;73752;49.594;8.734;2024-02-14T16:03:36;99977.75;;;9.85;87.20
83762;BME280;73752;49.594;8.734;2024-02-14T16:06:36;99968.41;;;9.82;87.25
83762;BME280;73752;49.594;8.734;2024-02-14T16:09:36;99970.03;;;9.83;87.92
83762;BME280;73752;49.594;8.734;2024-02-14T16:12:37;99968.63;;;9.81;87.63
83762;BME280;73752;49.594;8.734;2024-02-14T16:15:37;99975.88;;;9.92;87.75
83762;BME280;73752;49.594;8.734;2024-02-14T16:18:38;99960.72;;;9.81;87.99
83762;BME280;73752;49.594;8.734;2024-02-14T16:21:39;99964.75;;;9.83;88.04
83762;BME280;73752;49.594;8.734;2024-02-14T16:24:39;99956.25;;;9.81;88.12
83762;BME280;73752;49.594;8.734;2024-02-14T16:27:39;99984.19;;;9.96;88.04
83762;BME280;73752;49.594;8.734;2024-02-14T16:30:41;99967.59;;;9.89;87.92
83762;BME280;73752;49.594;8.734;2024-02-14T16:33:41;99958.66;;;9.83;88.04
83762;BME280;73752;49.594;8.734;2024-02-14T16:36:42;99956.22;;;9.88;87.97
83762;BME280;73752;49.594;8.734;2024-02-14T16:39:45;99962.50;;;9.87;88.14
83762;BME280;73752;49.594;8.734;2024-02-14T16:42:46;99959.88;;;9.87;88.10
83762;BME280;73752;49.594;8.734;2024-02-14T16:45:46;99959.69;;;9.82;88.22
83762;BME280;73752;49.594;8.734;2024-02-14T16:48:46;99960.09;;;9.85;88.31
83762;BME280;73752;49.594;8.734;2024-02-14T16:51:47;99961.91;;;9.85;88.32
83762;BME280;73752;49.594;8.734;2024-02-14T16:54:48;99964.34;;;9.86;88.28
83762;BME280;73752;49.594;8.734;2024-02-14T16:57:48;99971.47;;;9.86;88.45
83762;BME280;73752;49.594;8.734;2024-02-14T17:00:48;99978.34;;;9.94;88.56
83762;BME280;73752;49.594;8.734;2024-02-14T17:03:49;99985.63;;;9.98;88.61
83762;BME280;73752;49.594;8.734;2024-02-14T17:06:49;99993.75;;;9.97;88.29
83762;BME280;73752;49.594;8.734;2024-02-14T17:09:50;99987.03;;;10.01;88.44
83762;BME280;73752;49.594;8.734;2024-02-14T17:12:50;99979.38;;;9.86;88.53
83762;BME280;73752;49.594;8.734;2024-02-14T17:15:50;99969.59;;;9.86;88.97
83762;BME280;73752;49.594;8.734;2024-02-14T17:18:50;99987.06;;;9.94;88.52
83762;BME280;73752;49.594;8.734;2024-02-14T17:21:51;99973.28;;;9.85;88.77
83762;BME280;73752;49.594;8.734;2024-02-14T17:24:52;99980.56;;;9.90;88.92
83762;BME280;73752;49.594;8.734;2024-02-14T17:27:55;99992.91;;;10.03;88.78
83762;BME280;73752;49.594;8.734;2024-02-14T17:30:56;99987.03;;;10.01;88.53
83762;BME280;73752;49.594;8.734;2024-02-14T17:33:57;99988.47;;;9.97;88.43
83762;BME280;73752;49.594;8.734;2024-02-14T17:36:57;99992.09;;;10.02;88.79
83762;BME280;73752;49.594;8.734;2024-02-14T17:39:58;99977.31;;;9.95;88.31
83762;BME280;73752;49.594;8.734;2024-02-14T17:42:58;99983.81;;;9.99;88.08
83762;BME280;73752;49.594;8.734;2024-02-14T17:45:59;99992.91;;;10.03;87.58
83762;BME280;73752;49.594;8.734;2024-02-14T17:48:59;99994.94;;;10.07;87.74
83762;BME280;73752;49.594;8.734;2024-02-14T17:52:00;99993.69;;;10.10;87.47
83762;BME280;73752;49.594;8.734;2024-02-14T17:55:06;99991.69;;;10.12;87.12
83762;BME280;73752;49.594;8.734;2024-02-14T17:58:07;99986.81;;;10.15;86.78
83762;BME280;73752;49.594;8.734;2024-02-14T18:01:09;99996.56;;;10.08;87.19
83762;BME280;73752;49.594;8.734;2024-02-14T18:04:09;100007.94;;;10.22;86.93
83762;BME280;73752;49.594;8.734;2024-02-14T18:07:09;100005.25;;;10.28;86.48